Iona, Idaho
Current Conditions -  °F | °C
As of 7:53 AM on Wednesday 22 Oct 2014 (Local Time) from KIDA Reporting Station
Scattered Clouds Scattered Clouds  
Wind Chill: 26°   Ceiling: Unl
Heat Index: 32°   Visibility: 10mi
Dew Point: 28°   Wind: 7mph
Humidity: 85%   Direction: 210°SSW
Pressure: 30.17"   Gusts: NA
Location:  43.53°N, 111.93°W
Report Text: KIDA 221353Z 21006KT 10SM FEW200 SCT250 00/M02 A3017 RMK AO2 SLP224 T00001022
Loading
Personal Weather Stations






























Interactive Weather Map
Tropical Storm Tracking
New forecast layout! Learn more

10-Day Weather Forecast

Advertisements
Track Severe Weather on mobile